createdAt,value
2019-02-02T00:01:18.273Z,90.98
2019-02-02T00:03:47.658Z,90.83
2019-02-02T00:06:17.020Z,91.38
2019-02-02T00:08:46.464Z,92.11
2019-02-02T00:11:15.909Z,91.88
2019-02-02T00:13:45.625Z,92.45
2019-02-02T00:16:15.078Z,92.94
2019-02-02T00:18:44.749Z,93.66
2019-02-02T00:21:14.086Z,94.31
2019-02-02T00:23:43.575Z,94.32
2019-02-02T00:26:12.959Z,93.83
2019-02-02T00:28:42.313Z,93.87
2019-02-02T00:31:11.679Z,93.81
2019-02-02T00:34:04.183Z,94.13
2019-02-02T00:36:33.533Z,93.68
2019-02-02T00:39:03.116Z,94.26
2019-02-02T00:41:33.266Z,95.25
2019-02-02T00:44:02.714Z,95.81
2019-02-02T00:46:32.153Z,95.80
2019-02-02T00:49:04.981Z,95.73
2019-02-02T00:51:34.518Z,95.71
2019-02-02T00:54:03.900Z,95.76
2019-02-02T00:56:33.225Z,95.70
2019-02-02T00:59:02.604Z,95.39
2019-02-02T01:01:31.941Z,95.11
2019-02-02T01:04:01.375Z,93.92
2019-02-02T01:06:30.715Z,93.92
2019-02-02T01:09:00.049Z,93.13
2019-02-02T01:11:29.438Z,92.84
2019-02-02T01:13:58.767Z,93.02
2019-02-02T01:16:28.083Z,92.47
2019-02-02T01:18:57.469Z,91.99
2019-02-02T01:21:26.864Z,92.43
2019-02-02T01:23:56.231Z,93.24
2019-02-02T01:26:25.569Z,94.00
2019-02-02T01:28:54.905Z,94.33
2019-02-02T01:31:24.297Z,94.43
2019-02-02T01:33:53.658Z,93.48
2019-02-02T01:36:22.978Z,92.15
2019-02-02T01:38:52.311Z,91.15
2019-02-02T01:41:21.716Z,90.67
2019-02-02T01:43:51.056Z,90.72
2019-02-02T01:46:20.399Z,91.17
2019-02-02T01:48:49.769Z,91.04
2019-02-02T01:51:19.117Z,90.65
2019-02-02T01:53:48.498Z,90.80
2019-02-02T01:56:17.928Z,92.33
2019-02-02T01:58:47.305Z,91.97
2019-02-02T02:01:16.643Z,91.97
2019-02-02T02:03:45.951Z,92.65
2019-02-02T02:06:15.266Z,93.23
2019-02-02T02:08:44.599Z,92.84
2019-02-02T02:11:13.939Z,92.85
2019-02-02T02:13:43.303Z,91.47
2019-02-02T02:16:12.626Z,91.47
2019-02-02T02:18:41.976Z,91.67
2019-02-02T02:21:11.313Z,91.96
2019-02-02T02:23:40.630Z,92.65
2019-02-02T02:26:09.974Z,93.01
2019-02-02T02:28:39.337Z,92.67
2019-02-02T02:31:08.668Z,92.78
2019-02-02T02:33:38.052Z,93.55
2019-02-02T02:36:07.376Z,94.20
2019-02-02T02:38:36.728Z,94.69
2019-02-02T02:41:06.108Z,95.49
2019-02-02T02:43:35.472Z,95.75
2019-02-02T02:46:04.848Z,95.17
2019-02-02T02:48:34.275Z,94.76
2019-02-02T02:51:03.648Z,93.75
2019-02-02T02:53:33.046Z,94.79
2019-02-02T02:56:02.411Z,94.79
2019-02-02T02:58:40.688Z,94.86
2019-02-02T03:01:02.809Z,94.86
2019-02-02T03:03:32.207Z,94.44
2019-02-02T03:06:01.592Z,94.86
2019-02-02T03:08:30.922Z,94.55
2019-02-02T03:11:00.236Z,93.75
2019-02-02T03:13:29.554Z,92.81
2019-02-02T03:15:58.868Z,92.81
2019-02-02T03:18:28.168Z,92.95
2019-02-02T03:20:57.521Z,94.35
2019-02-02T03:23:26.879Z,94.35
2019-02-02T03:25:56.242Z,94.65
2019-02-02T03:28:25.616Z,94.54
2019-02-02T03:30:55.418Z,94.44
2019-02-02T03:33:24.791Z,94.78
2019-02-02T03:35:54.172Z,95.12
2019-02-02T03:38:23.649Z,95.23
2019-02-02T03:40:53.000Z,95.32
2019-02-02T03:43:22.416Z,95.74
2019-02-02T03:45:51.755Z,95.62
2019-02-02T03:48:21.130Z,95.51
2019-02-02T03:50:50.491Z,95.45
2019-02-02T03:53:19.814Z,95.25
2019-02-02T03:55:49.641Z,95.15
2019-02-02T03:58:19.031Z,94.93
2019-02-02T04:00:48.542Z,94.94
2019-02-02T04:03:18.135Z,95.57
2019-02-02T04:05:47.490Z,95.57
2019-02-02T04:08:16.966Z,95.53
2019-02-02T04:10:46.336Z,94.83
2019-02-02T04:13:15.672Z,95.99
2019-02-02T04:15:45.106Z,96.86
2019-02-02T04:18:14.416Z,96.77
2019-02-02T04:20:43.771Z,96.44
2019-02-02T04:23:13.116Z,95.76
2019-02-02T04:25:42.506Z,95.76
2019-02-02T04:28:11.812Z,95.87
2019-02-02T04:30:41.146Z,95.67
2019-02-02T04:33:10.508Z,95.66
2019-02-02T04:35:39.883Z,95.59
2019-02-02T04:38:09.246Z,95.47
2019-02-02T04:40:39.105Z,95.60
2019-02-02T04:43:08.473Z,95.51
2019-02-02T04:45:37.847Z,95.98
2019-02-02T04:48:07.177Z,96.27
2019-02-02T04:50:36.504Z,95.97
2019-02-02T04:53:05.858Z,96.47
2019-02-02T04:55:35.166Z,97.31
2019-02-02T04:58:04.548Z,97.66
2019-02-02T05:00:33.881Z,97.72
2019-02-02T05:03:03.266Z,97.25
2019-02-02T05:05:32.641Z,97.25
2019-02-02T05:08:02.060Z,97.21
2019-02-02T05:10:31.422Z,97.21
2019-02-02T05:13:00.845Z,96.96
2019-02-02T05:15:30.198Z,97.06
2019-02-02T05:17:59.776Z,96.91
2019-02-02T05:20:29.241Z,96.52
2019-02-02T05:22:58.580Z,96.35
2019-02-02T05:25:27.955Z,96.53
2019-02-02T05:27:57.323Z,96.97
2019-02-02T05:30:28.858Z,97.76
2019-02-02T05:32:58.351Z,97.55
2019-02-02T05:35:27.824Z,97.80
2019-02-02T05:37:57.298Z,98.59
2019-02-02T05:40:26.655Z,98.59
2019-02-02T05:42:56.001Z,98.59
2019-02-02T05:45:25.349Z,99.17
2019-02-02T05:47:54.730Z,98.92
2019-02-02T05:50:24.574Z,98.92
2019-02-02T05:52:53.930Z,98.54
2019-02-02T05:55:23.565Z,98.12
2019-02-02T05:57:52.935Z,98.12
2019-02-02T06:00:30.604Z,98.20
2019-02-02T06:03:00.043Z,98.52
2019-02-02T06:05:29.367Z,99.31
2019-02-02T06:07:58.753Z,99.54
2019-02-02T06:10:28.196Z,99.83
2019-02-02T06:12:57.556Z,100.00
2019-02-02T06:15:28.579Z,100.00
2019-02-02T06:17:58.004Z,100.00
2019-02-02T06:20:27.381Z,100.00
2019-02-02T06:22:56.780Z,100.00
2019-02-02T06:25:26.236Z,100.00
2019-02-02T06:27:55.630Z,100.00
2019-02-02T06:30:25.381Z,100.00
2019-02-02T06:32:54.730Z,99.57
2019-02-02T06:35:24.065Z,99.03
2019-02-02T06:37:53.392Z,98.55
2019-02-02T06:40:22.784Z,98.81
2019-02-02T06:42:52.159Z,98.22
2019-02-02T06:45:33.147Z,97.99
2019-02-02T06:48:02.919Z,97.76
2019-02-02T06:50:32.229Z,97.05
2019-02-02T06:53:01.918Z,95.98
2019-02-02T06:55:31.345Z,95.53
2019-02-02T06:58:00.777Z,95.53
2019-02-02T07:00:30.171Z,95.50
2019-02-02T07:02:59.565Z,95.18
2019-02-02T07:05:28.927Z,94.55
2019-02-02T07:07:58.261Z,94.63
2019-02-02T07:10:28.149Z,94.38
2019-02-02T07:12:57.710Z,94.35
2019-02-02T07:15:28.504Z,94.24
2019-02-02T07:17:58.079Z,93.49
2019-02-02T07:20:27.452Z,93.46
2019-02-02T07:22:56.871Z,93.56
2019-02-02T07:25:26.571Z,93.09
2019-02-02T07:27:55.933Z,92.91
2019-02-02T07:30:29.778Z,92.38
2019-02-02T07:32:56.816Z,91.25
2019-02-02T07:35:26.203Z,90.85
2019-02-02T07:37:55.545Z,90.64
2019-02-02T07:40:24.902Z,89.68
2019-02-02T07:42:54.354Z,88.78
2019-02-02T07:45:28.998Z,87.84
2019-02-02T07:47:58.426Z,87.59
2019-02-02T07:50:27.996Z,87.13
2019-02-02T07:52:57.352Z,86.57
2019-02-02T07:55:26.688Z,85.29
2019-02-02T07:57:56.032Z,85.14
2019-02-02T08:00:41.226Z,84.90
2019-02-02T08:03:11.866Z,84.68
2019-02-02T08:05:41.225Z,84.89
2019-02-02T08:08:10.564Z,84.99
2019-02-02T08:10:39.941Z,84.31
2019-02-02T08:13:09.341Z,83.48
2019-02-02T08:15:38.743Z,83.29
2019-02-02T08:18:08.182Z,82.63
2019-02-02T08:20:37.550Z,82.32
2019-02-02T08:23:06.924Z,84.04
2019-02-02T08:25:36.270Z,81.75
2019-02-02T08:28:06.010Z,80.21
2019-02-02T08:30:36.281Z,79.99
2019-02-02T08:33:06.625Z,80.78
2019-02-02T08:35:35.986Z,79.11
2019-02-02T08:38:05.689Z,79.86
2019-02-02T08:40:35.058Z,78.28
2019-02-02T08:43:04.583Z,76.97
2019-02-02T08:45:33.920Z,75.94
2019-02-02T08:48:03.246Z,75.55
2019-02-02T08:50:35.298Z,74.19
2019-02-02T08:53:05.459Z,73.40
2019-02-02T08:55:34.787Z,74.19
2019-02-02T08:58:04.430Z,73.57
2019-02-02T09:00:33.921Z,72.94
2019-02-02T09:03:03.305Z,73.67
2019-02-02T09:05:32.625Z,72.40
2019-02-02T09:08:02.080Z,73.09
2019-02-02T09:10:34.360Z,72.43
2019-02-02T09:13:03.727Z,70.96
2019-02-02T09:15:33.043Z,71.12
2019-02-02T09:18:02.404Z,70.92
2019-02-02T09:20:31.912Z,71.07
2019-02-02T09:23:06.378Z,70.94
2019-02-02T09:25:32.399Z,70.75
2019-02-02T09:28:01.723Z,71.05
2019-02-02T09:30:38.292Z,70.42
2019-02-02T09:33:08.196Z,70.64
2019-02-02T09:35:37.564Z,70.13
2019-02-02T09:38:07.081Z,70.47
2019-02-02T09:40:36.427Z,70.94
2019-02-02T09:43:06.078Z,70.40
2019-02-02T09:45:35.424Z,70.25
2019-02-02T09:48:04.926Z,70.48
2019-02-02T09:50:34.256Z,70.34
2019-02-02T09:53:03.699Z,71.19
2019-02-02T09:55:33.127Z,70.48
2019-02-02T09:58:08.522Z,69.89
2019-02-02T10:00:36.610Z,69.35
2019-02-02T10:03:06.208Z,69.14
2019-02-02T10:05:35.545Z,69.09
2019-02-02T10:08:04.993Z,69.16
2019-02-02T10:10:35.165Z,68.98
2019-02-02T10:13:05.060Z,68.40
2019-02-02T10:15:34.472Z,68.14
2019-02-02T10:18:03.844Z,67.76
2019-02-02T10:20:34.574Z,66.89
2019-02-02T10:23:03.949Z,67.25
2019-02-02T10:25:33.323Z,66.84
2019-02-02T10:28:03.058Z,65.72
2019-02-02T10:30:44.993Z,65.57
2019-02-02T10:33:15.749Z,66.00
2019-02-02T10:35:46.366Z,66.05
2019-02-02T10:38:15.846Z,65.65
2019-02-02T10:40:45.283Z,64.80
2019-02-02T10:43:15.141Z,63.26
2019-02-02T10:45:44.898Z,63.71
2019-02-02T10:48:14.297Z,63.94
2019-02-02T10:50:43.644Z,63.84
2019-02-02T10:53:13.082Z,63.18
2019-02-02T10:55:42.609Z,63.17
2019-02-02T10:58:11.906Z,63.47
2019-02-02T11:00:43.895Z,63.33
2019-02-02T11:03:13.413Z,62.24
2019-02-02T11:05:42.879Z,62.09
2019-02-02T11:08:15.071Z,62.68
2019-02-02T11:10:44.623Z,63.31
2019-02-02T11:13:16.364Z,63.19
2019-02-02T11:15:56.150Z,63.36
2019-02-02T11:18:25.494Z,63.51
2019-02-02T11:20:55.188Z,64.38
2019-02-02T11:23:24.742Z,65.16
2019-02-02T11:25:54.279Z,62.22
2019-02-02T11:28:23.837Z,62.35
2019-02-02T11:30:53.372Z,61.98
2019-02-02T11:33:22.855Z,61.42
2019-02-02T11:35:52.315Z,59.98
2019-02-02T11:38:22.132Z,60.05
2019-02-02T11:40:52.110Z,59.44
2019-02-02T11:43:22.460Z,59.02
2019-02-02T11:46:05.699Z,59.45
2019-02-02T11:48:35.163Z,60.44
2019-02-02T11:51:04.560Z,60.75
2019-02-02T11:53:33.919Z,61.50
2019-02-02T11:56:03.292Z,61.01
2019-02-02T11:58:32.612Z,60.75
2019-02-02T12:01:02.334Z,61.89
2019-02-02T12:03:31.687Z,61.94
2019-02-02T12:06:01.033Z,60.78
2019-02-02T12:08:32.509Z,61.93
2019-02-02T12:11:02.051Z,62.55
2019-02-02T12:13:31.594Z,62.09
2019-02-02T12:16:00.861Z,62.57
2019-02-02T12:18:30.179Z,62.65
2019-02-02T12:20:59.518Z,62.30
2019-02-02T12:23:28.846Z,62.45
2019-02-02T12:25:58.528Z,62.66
2019-02-02T12:28:27.867Z,63.08
2019-02-02T12:30:57.236Z,63.37
2019-02-02T12:33:26.610Z,63.10
2019-02-02T12:35:56.074Z,63.45
2019-02-02T12:38:25.445Z,63.28
2019-02-02T12:40:54.883Z,62.68
2019-02-02T12:43:24.260Z,62.44
2019-02-02T12:45:54.377Z,62.42
2019-02-02T12:48:24.102Z,62.13
2019-02-02T12:50:53.463Z,62.40
2019-02-02T12:53:22.773Z,61.42
2019-02-02T12:55:52.251Z,61.31
2019-02-02T12:58:21.592Z,61.72
2019-02-02T13:00:50.945Z,61.68
2019-02-02T13:03:20.378Z,61.90
2019-02-02T13:05:49.741Z,61.84
2019-02-02T13:08:19.086Z,61.65
2019-02-02T13:10:48.473Z,61.88
2019-02-02T13:13:17.912Z,61.00
2019-02-02T13:15:47.243Z,61.13
2019-02-02T13:18:16.701Z,61.35
2019-02-02T13:20:46.091Z,61.37
2019-02-02T13:23:15.449Z,61.71
2019-02-02T13:25:45.305Z,61.82
2019-02-02T13:28:15.015Z,62.06
2019-02-02T13:30:44.727Z,61.82
2019-02-02T13:33:14.149Z,62.09
2019-02-02T13:35:45.140Z,62.27
2019-02-02T13:38:14.640Z,62.35
2019-02-02T13:40:44.100Z,61.73
2019-02-02T13:43:13.865Z,62.33
2019-02-02T13:45:43.255Z,62.38
2019-02-02T13:48:12.738Z,62.35
2019-02-02T13:50:42.608Z,62.79
2019-02-02T13:53:11.970Z,62.99
2019-02-02T13:55:41.306Z,63.55
2019-02-02T13:58:10.640Z,63.82
2019-02-02T14:00:40.023Z,63.87
2019-02-02T14:03:09.454Z,64.05
2019-02-02T14:05:40.216Z,64.43
2019-02-02T14:08:09.584Z,64.79
2019-02-02T14:10:38.990Z,64.93
2019-02-02T14:13:08.558Z,65.09
2019-02-02T14:15:39.407Z,65.59
2019-02-02T14:18:09.097Z,65.86
2019-02-02T14:20:38.452Z,66.57
2019-02-02T14:23:07.824Z,67.48
2019-02-02T14:25:37.213Z,67.56
2019-02-02T14:28:06.601Z,67.72
2019-02-02T14:30:35.963Z,67.96
2019-02-02T14:33:13.882Z,68.00
2019-02-02T14:35:36.452Z,68.14
2019-02-02T14:38:05.866Z,69.13
2019-02-02T14:40:35.229Z,68.69
2019-02-02T14:43:04.663Z,69.80
2019-02-02T14:45:34.043Z,68.82
2019-02-02T14:48:03.501Z,69.76
2019-02-02T14:50:32.802Z,69.77
2019-02-02T14:53:02.731Z,70.28
2019-02-02T14:55:32.071Z,70.87
2019-02-02T14:58:01.396Z,71.38
2019-02-02T15:00:31.157Z,71.79
2019-02-02T15:03:03.216Z,71.85
2019-02-02T15:05:42.641Z,72.42
2019-02-02T15:08:02.773Z,72.34
2019-02-02T15:10:32.119Z,71.87
2019-02-02T15:13:01.540Z,73.04
2019-02-02T15:15:30.905Z,71.95
2019-02-02T15:18:00.366Z,70.04
2019-02-02T15:20:35.082Z,70.88
2019-02-02T15:23:04.958Z,71.05
2019-02-02T15:25:34.318Z,70.96
2019-02-02T15:28:03.673Z,71.07
2019-02-02T15:30:33.140Z,71.45
2019-02-02T15:33:02.508Z,71.07
2019-02-02T15:35:32.004Z,70.56
2019-02-02T15:38:01.470Z,71.23
2019-02-02T15:40:31.733Z,71.34
2019-02-02T15:43:01.374Z,72.18
2019-02-02T15:45:31.164Z,72.45
2019-02-02T15:48:00.547Z,72.24
2019-02-02T15:50:29.985Z,72.48
2019-02-02T15:53:02.254Z,72.57
2019-02-02T15:55:31.579Z,72.54
2019-02-02T15:58:02.916Z,72.84
2019-02-02T16:00:34.226Z,73.29
2019-02-02T16:03:03.796Z,73.71
2019-02-02T16:05:33.546Z,74.09
2019-02-02T16:08:04.969Z,73.95
2019-02-02T16:10:34.753Z,73.95
2019-02-02T16:13:04.202Z,74.03
2019-02-02T16:15:34.490Z,74.09
2019-02-02T16:18:04.061Z,74.28
2019-02-02T16:20:41.765Z,74.25
2019-02-02T16:23:09.861Z,73.88
2019-02-02T16:25:39.506Z,73.92
2019-02-02T16:28:08.897Z,74.36
2019-02-02T16:30:38.715Z,74.51
2019-02-02T16:33:08.285Z,74.72
2019-02-02T16:35:37.782Z,75.06
2019-02-02T16:38:07.357Z,75.58
2019-02-02T16:40:36.706Z,75.86
2019-02-02T16:43:06.300Z,75.95
2019-02-02T16:45:35.761Z,76.20
2019-02-02T16:48:05.807Z,76.34
2019-02-02T16:50:35.176Z,76.37
2019-02-02T16:53:04.939Z,76.55
2019-02-02T16:55:34.293Z,76.56
2019-02-02T16:58:04.935Z,76.81
2019-02-02T17:00:35.085Z,77.09
2019-02-02T17:03:04.710Z,77.04
2019-02-02T17:05:34.026Z,77.14
2019-02-02T17:08:03.430Z,77.52
2019-02-02T17:10:34.914Z,77.54
2019-02-02T17:13:04.868Z,77.69
2019-02-02T17:15:34.330Z,77.79
2019-02-02T17:18:04.083Z,77.87
2019-02-02T17:20:39.576Z,78.04
2019-02-02T17:23:08.927Z,78.28
2019-02-02T17:25:38.238Z,78.63
2019-02-02T17:28:08.214Z,79.05
2019-02-02T17:30:37.521Z,79.38
2019-02-02T17:33:09.408Z,79.37
2019-02-02T17:35:39.061Z,79.55
2019-02-02T17:38:08.415Z,79.38
2019-02-02T17:40:37.738Z,79.52
2019-02-02T17:43:07.064Z,79.73
2019-02-02T17:45:36.439Z,78.92
2019-02-02T17:48:07.031Z,78.77
2019-02-02T17:50:36.464Z,78.72
2019-02-02T17:53:05.993Z,77.89
2019-02-02T17:55:35.351Z,77.51
2019-02-02T17:58:04.886Z,77.41
2019-02-02T18:00:41.973Z,77.52
2019-02-02T18:03:11.309Z,77.50
2019-02-02T18:05:40.640Z,77.62
2019-02-02T18:08:10.108Z,78.11
2019-02-02T18:10:42.580Z,78.32
2019-02-02T18:13:11.935Z,78.23
2019-02-02T18:15:41.410Z,78.20
2019-02-02T18:18:11.234Z,78.31
2019-02-02T18:20:40.818Z,78.40
2019-02-02T18:23:10.313Z,78.21
2019-02-02T18:25:39.754Z,78.03
2019-02-02T18:28:09.112Z,78.11
2019-02-02T18:30:38.459Z,77.90
2019-02-02T18:33:07.788Z,77.76
2019-02-02T18:35:37.345Z,77.99
2019-02-02T18:38:06.986Z,78.19
2019-02-02T18:40:36.358Z,78.17
2019-02-02T18:43:06.058Z,78.23
2019-02-02T18:45:35.569Z,78.58
2019-02-02T18:48:05.247Z,79.15
2019-02-02T18:50:34.948Z,79.24
2019-02-02T18:53:04.612Z,79.38
2019-02-02T18:55:42.584Z,79.93
2019-02-02T18:58:19.422Z,79.73
2019-02-02T19:00:49.302Z,80.18
2019-02-02T19:03:18.706Z,80.95
2019-02-02T19:05:48.702Z,81.20
2019-02-02T19:08:18.128Z,81.20
2019-02-02T19:10:47.537Z,81.61
2019-02-02T19:13:17.113Z,82.12
2019-02-02T19:15:46.516Z,82.33
2019-02-02T19:18:15.955Z,82.66
2019-02-02T19:20:45.280Z,82.84
2019-02-02T19:23:24.683Z,83.48
2019-02-02T19:25:45.717Z,83.78
2019-02-02T19:28:15.233Z,83.82
2019-02-02T19:30:44.581Z,83.67
2019-02-02T19:33:14.017Z,83.80
2019-02-02T19:35:43.416Z,84.85
2019-02-02T19:38:12.791Z,84.91
2019-02-02T19:40:42.289Z,85.06
2019-02-02T19:43:11.623Z,85.29
2019-02-02T19:45:41.257Z,85.22
2019-02-02T19:48:10.586Z,86.50
2019-02-02T19:50:39.990Z,86.90
2019-02-02T19:53:09.583Z,86.12
2019-02-02T19:55:41.442Z,86.14
2019-02-02T19:58:10.274Z,87.16
2019-02-02T20:00:39.638Z,87.08
2019-02-02T20:03:09.060Z,87.15
2019-02-02T20:05:38.471Z,87.67
2019-02-02T20:08:07.862Z,87.29
2019-02-02T20:10:37.299Z,87.42
2019-02-02T20:13:06.701Z,87.43
2019-02-02T20:15:36.072Z,88.25
2019-02-02T20:18:09.997Z,88.58
2019-02-02T20:20:36.816Z,88.56
2019-02-02T20:23:06.317Z,89.28
2019-02-02T20:25:37.926Z,89.56
2019-02-02T20:28:08.377Z,89.57
2019-02-02T20:30:37.732Z,89.17
2019-02-02T20:33:07.127Z,88.63
2019-02-02T20:35:41.922Z,88.29
2019-02-02T20:38:07.585Z,88.58
2019-02-02T20:40:36.949Z,89.03
2019-02-02T20:43:06.353Z,89.32
2019-02-02T20:45:36.370Z,89.82
2019-02-02T20:48:06.135Z,89.56
2019-02-02T20:50:35.511Z,89.87
2019-02-02T20:53:05.174Z,90.58
2019-02-02T20:55:37.588Z,90.49
2019-02-02T20:58:07.380Z,91.35
2019-02-02T21:00:37.250Z,91.44
2019-02-02T21:03:06.738Z,91.83
2019-02-02T21:05:36.061Z,92.05
2019-02-02T21:08:06.029Z,92.30
2019-02-02T21:10:35.377Z,92.81
2019-02-02T21:13:05.039Z,92.66
2019-02-02T21:15:34.409Z,92.19
2019-02-02T21:18:03.970Z,92.21
2019-02-02T21:20:33.706Z,92.00
2019-02-02T21:23:03.088Z,92.34
2019-02-02T21:25:32.431Z,91.74
2019-02-02T21:28:01.822Z,91.53
2019-02-02T21:30:33.420Z,92.32
2019-02-02T21:33:02.811Z,91.78
2019-02-02T21:35:32.185Z,91.89
2019-02-02T21:38:01.553Z,92.11
2019-02-02T21:40:32.618Z,92.09
2019-02-02T21:43:02.067Z,92.08
2019-02-02T21:45:31.504Z,91.63
2019-02-02T21:48:00.847Z,91.14
2019-02-02T21:50:30.207Z,91.18
2019-02-02T21:52:59.529Z,91.48
2019-02-02T21:55:29.550Z,91.23
2019-02-02T21:57:59.052Z,91.03
2019-02-02T22:00:30.832Z,91.92
2019-02-02T22:03:00.140Z,92.00
2019-02-02T22:05:29.514Z,91.53
2019-02-02T22:07:58.899Z,91.95
2019-02-02T22:10:28.448Z,91.81
2019-02-02T22:12:58.066Z,91.12
2019-02-02T22:15:30.822Z,90.89
2019-02-02T22:18:00.426Z,90.58
2019-02-02T22:20:30.138Z,90.45
2019-02-02T22:22:59.941Z,90.78
2019-02-02T22:25:31.009Z,91.16
2019-02-02T22:28:00.674Z,91.59
2019-02-02T22:30:32.149Z,91.78
2019-02-02T22:33:01.575Z,91.55
2019-02-02T22:35:30.960Z,91.16
2019-02-02T22:38:00.611Z,90.66
2019-02-02T22:40:30.309Z,90.70
2019-02-02T22:42:59.767Z,90.45
2019-02-02T22:45:29.156Z,90.15
2019-02-02T22:47:58.539Z,90.49
2019-02-02T22:50:28.557Z,90.56
2019-02-02T22:52:58.051Z,90.48
2019-02-02T22:55:27.413Z,90.15
2019-02-02T22:57:56.771Z,90.18
2019-02-02T23:00:48.242Z,89.75
2019-02-02T23:03:19.268Z,89.97
2019-02-02T23:06:39.363Z,89.97
2019-02-02T23:09:54.997Z,89.69
2019-02-02T23:13:05.157Z,89.53
2019-02-02T23:16:24.583Z,89.26
2019-02-02T23:18:54.706Z,89.40
2019-02-02T23:21:24.741Z,89.80
2019-02-02T23:23:54.057Z,89.74
2019-02-02T23:26:23.417Z,89.66
2019-02-02T23:28:52.743Z,89.36
2019-02-02T23:31:22.457Z,89.09
2019-02-02T23:33:51.773Z,88.52
2019-02-02T23:36:23.683Z,88.07
2019-02-02T23:38:53.002Z,88.01
2019-02-02T23:41:22.384Z,88.85
2019-02-02T23:43:53.263Z,89.19
2019-02-02T23:46:22.783Z,89.47
2019-02-02T23:48:52.142Z,89.55
2019-02-02T23:51:21.738Z,90.29
2019-02-02T23:53:51.092Z,90.44
2019-02-02T23:56:20.479Z,89.93
2019-02-02T23:58:49.839Z,90.11
